createdAt,value
2022-11-22T00:01:05.617Z,22.38
2022-11-22T00:03:51.478Z,20.02
2022-11-22T00:06:37.398Z,20.55
2022-11-22T00:09:23.246Z,20.20
2022-11-22T00:12:09.227Z,20.75
2022-11-22T00:14:56.966Z,22.42
2022-11-22T00:17:43.108Z,18.75
2022-11-22T00:20:29.558Z,17.38
2022-11-22T00:23:16.325Z,18.45
2022-11-22T00:26:02.178Z,15.50
2022-11-22T00:28:48.207Z,15.82
2022-11-22T00:31:34.086Z,14.80
2022-11-22T00:34:19.984Z,13.25
2022-11-22T00:37:06.005Z,13.90
2022-11-22T00:39:52.056Z,15.75
2022-11-22T00:42:38.165Z,14.90
2022-11-22T00:45:24.133Z,16.50
2022-11-22T00:48:10.091Z,17.05
2022-11-22T00:50:56.386Z,16.85
2022-11-22T00:53:42.043Z,17.55
2022-11-22T00:56:27.996Z,18.42
2022-11-22T00:59:13.993Z,18.10
2022-11-22T01:01:59.885Z,14.10
2022-11-22T01:04:45.792Z,14.45
2022-11-22T01:07:31.630Z,16.75
2022-11-22T01:10:17.593Z,16.05
2022-11-22T01:13:04.871Z,14.57
2022-11-22T01:15:50.797Z,16.50
2022-11-22T01:18:36.879Z,13.38
2022-11-22T01:21:23.194Z,15.05
2022-11-22T01:24:09.790Z,15.02
2022-11-22T01:26:56.374Z,17.95
2022-11-22T01:29:42.691Z,16.58
2022-11-22T01:32:28.802Z,18.05
2022-11-22T01:35:15.126Z,16.23
2022-11-22T01:38:01.360Z,18.05
2022-11-22T01:40:47.406Z,16.80
2022-11-22T01:43:33.575Z,18.40
2022-11-22T01:46:32.017Z,14.75
2022-11-22T01:49:30.994Z,16.48
2022-11-22T01:52:22.712Z,16.90
2022-11-22T01:55:11.621Z,16.02
2022-11-22T01:57:58.414Z,16.15
2022-11-22T02:00:44.635Z,16.17
2022-11-22T02:03:32.632Z,14.65
2022-11-22T02:06:19.891Z,18.27
2022-11-22T02:09:13.015Z,17.05
2022-11-22T02:12:01.998Z,16.83
2022-11-22T02:14:48.944Z,17.30
2022-11-22T02:17:34.992Z,15.55
2022-11-22T02:20:20.794Z,16.70
2022-11-22T02:23:12.630Z,18.25
2022-11-22T02:26:00.868Z,15.73
2022-11-22T02:28:47.186Z,14.65
2022-11-22T02:31:44.746Z,16.15
2022-11-22T02:34:41.906Z,16.02
2022-11-22T02:37:31.479Z,17.38
2022-11-22T02:40:18.387Z,16.58
2022-11-22T02:43:11.723Z,17.83
2022-11-22T02:46:04.661Z,15.43
2022-11-22T02:48:51.136Z,16.27
2022-11-22T02:51:37.076Z,18.77
2022-11-22T02:54:23.275Z,15.25
2022-11-22T02:57:09.326Z,17.55
2022-11-22T02:59:55.148Z,15.65
2022-11-22T03:02:41.159Z,17.10
2022-11-22T03:05:27.254Z,15.48
2022-11-22T03:08:13.146Z,17.23
2022-11-22T03:10:59.152Z,15.70
2022-11-22T03:13:45.237Z,17.13
2022-11-22T03:16:31.754Z,18.92
2022-11-22T03:19:17.630Z,16.75
2022-11-22T03:22:03.451Z,16.95
2022-11-22T03:24:49.498Z,14.45
2022-11-22T03:27:35.272Z,13.63
2022-11-22T03:30:21.320Z,10.85
2022-11-22T03:33:07.462Z,12.35
2022-11-22T03:35:59.427Z,12.38
2022-11-22T03:38:45.377Z,13.45
2022-11-22T03:41:31.328Z,15.05
2022-11-22T03:44:17.111Z,49.13
2022-11-22T03:47:02.938Z,29.00
2022-11-22T03:49:49.058Z,30.80
2022-11-22T03:52:34.835Z,28.88
2022-11-22T03:55:20.890Z,22.90
2022-11-22T03:58:06.874Z,24.38
2022-11-22T04:00:52.971Z,23.40
2022-11-22T04:03:38.947Z,24.05
2022-11-22T04:06:24.728Z,25.45
2022-11-22T04:09:10.642Z,23.70
2022-11-22T04:11:56.425Z,23.75
2022-11-22T04:15:00.784Z,25.15
2022-11-22T04:17:48.100Z,21.52
2022-11-22T04:20:53.137Z,18.27
2022-11-22T04:23:39.402Z,18.75
2022-11-22T04:26:25.220Z,17.63
2022-11-22T04:29:11.209Z,17.42
2022-11-22T04:32:15.628Z,16.52
2022-11-22T04:35:01.694Z,25.13
2022-11-22T04:37:51.787Z,19.48
2022-11-22T04:40:38.414Z,16.23
2022-11-22T04:43:44.864Z,16.42
2022-11-22T04:46:31.555Z,18.05
2022-11-22T04:49:17.703Z,18.40
2022-11-22T04:52:23.145Z,17.83
2022-11-22T04:55:09.452Z,19.17
2022-11-22T04:57:59.763Z,20.33
2022-11-22T05:00:46.880Z,22.08
2022-11-22T05:03:33.015Z,21.10
2022-11-22T05:06:19.159Z,23.40
2022-11-22T05:09:05.044Z,24.33
2022-11-22T05:11:51.374Z,25.55
2022-11-22T05:14:37.247Z,27.80
2022-11-22T05:17:23.365Z,33.90
2022-11-22T05:20:10.093Z,46.13
2022-11-22T05:23:14.596Z,47.53
2022-11-22T05:26:00.711Z,59.33
2022-11-22T05:28:46.750Z,53.63
2022-11-22T05:31:34.601Z,65.60
2022-11-22T05:34:20.714Z,68.28
2022-11-22T05:37:06.730Z,59.25
2022-11-22T05:39:52.608Z,56.88
2022-11-22T05:42:38.420Z,54.03
2022-11-22T05:45:24.386Z,51.20
2022-11-22T05:48:10.175Z,52.58
2022-11-22T05:50:56.087Z,44.40
2022-11-22T05:53:42.876Z,44.65
2022-11-22T05:56:28.544Z,43.72
2022-11-22T05:59:14.668Z,49.97
2022-11-22T06:02:00.552Z,44.35
2022-11-22T06:04:46.445Z,41.55
2022-11-22T06:07:32.617Z,45.42
2022-11-22T06:10:18.474Z,47.05
2022-11-22T06:13:04.583Z,42.50
2022-11-22T06:15:50.352Z,52.38
2022-11-22T06:18:36.679Z,50.97
2022-11-22T06:32:37.378Z,44.65
2022-11-22T06:35:23.387Z,45.30
2022-11-22T06:38:09.239Z,37.47
2022-11-22T06:41:02.819Z,34.92
2022-11-22T06:43:49.945Z,38.13
2022-11-22T06:46:36.420Z,36.75
2022-11-22T06:49:22.571Z,37.88
2022-11-22T06:52:08.495Z,40.17
2022-11-22T06:54:54.283Z,48.20
2022-11-22T06:57:40.195Z,54.13
2022-11-22T07:00:26.037Z,64.75
2022-11-22T07:03:11.917Z,61.22
2022-11-22T07:05:57.814Z,59.13
2022-11-22T07:08:44.467Z,57.47
2022-11-22T07:11:32.060Z,57.28
2022-11-22T07:14:18.035Z,58.95
2022-11-22T07:17:03.905Z,60.42
2022-11-22T07:19:49.842Z,64.70
2022-11-22T07:22:35.637Z,77.65
2022-11-22T07:25:21.515Z,58.90
2022-11-22T07:28:07.474Z,65.13
2022-11-22T07:30:53.851Z,64.03
2022-11-22T07:33:40.348Z,63.30
2022-11-22T07:36:29.420Z,67.75
2022-11-22T07:39:15.179Z,65.05
2022-11-22T07:42:00.984Z,69.00
2022-11-22T07:44:47.090Z,62.30
2022-11-22T07:47:32.906Z,70.60
2022-11-22T07:50:18.985Z,73.20
2022-11-22T07:53:05.298Z,76.05
2022-11-22T07:55:51.124Z,77.32
2022-11-22T07:58:37.691Z,66.13
2022-11-22T08:01:23.827Z,89.45
2022-11-22T08:04:09.800Z,81.40
2022-11-22T08:06:55.801Z,66.53
2022-11-22T08:09:41.644Z,74.75
2022-11-22T08:12:27.588Z,67.20
2022-11-22T08:15:15.165Z,68.32
2022-11-22T08:18:01.198Z,72.30
2022-11-22T08:20:47.217Z,70.18
2022-11-22T08:23:33.457Z,63.20
2022-11-22T08:26:21.091Z,59.17
2022-11-22T08:29:13.924Z,90.57
2022-11-22T08:32:00.410Z,70.80
2022-11-22T08:34:47.496Z,68.03
2022-11-22T08:37:33.931Z,72.07
2022-11-22T08:40:20.080Z,70.35
2022-11-22T08:43:06.075Z,62.78
2022-11-22T08:45:59.423Z,73.60
2022-11-22T08:48:46.008Z,69.43
2022-11-22T08:51:32.979Z,100.22
2022-11-22T08:54:18.922Z,81.85
2022-11-22T08:57:04.880Z,71.00
2022-11-22T08:59:50.975Z,49.45
2022-11-22T09:02:37.036Z,61.30
2022-11-22T09:05:23.693Z,58.03
2022-11-22T09:08:25.025Z,66.45
2022-11-22T09:11:15.002Z,70.13
2022-11-22T09:14:01.142Z,66.10
2022-11-22T09:16:47.365Z,61.88
2022-11-22T09:19:33.460Z,74.28
2022-11-22T09:22:21.780Z,62.80
2022-11-22T09:25:10.179Z,65.68
2022-11-22T09:28:00.157Z,78.68
2022-11-22T09:30:46.404Z,70.75
2022-11-22T09:33:34.139Z,58.58
2022-11-22T09:36:22.408Z,62.63
2022-11-22T09:39:09.149Z,55.60
2022-11-22T09:42:30.894Z,58.38
2022-11-22T09:45:35.049Z,61.65
2022-11-22T09:48:47.706Z,53.70
2022-11-22T09:51:41.127Z,65.30
2022-11-22T09:54:34.020Z,66.40
2022-11-22T09:57:24.176Z,64.75
2022-11-22T10:00:30.780Z,77.07
2022-11-22T10:03:29.766Z,67.53
2022-11-22T10:06:32.743Z,59.65
2022-11-22T10:09:18.690Z,66.40
2022-11-22T10:12:28.016Z,61.78
2022-11-22T10:15:39.741Z,53.83
2022-11-22T10:18:34.744Z,57.78
2022-11-22T10:21:21.086Z,64.07
2022-11-22T10:24:13.000Z,62.08
2022-11-22T10:27:00.316Z,62.97
2022-11-22T10:30:03.654Z,69.15
2022-11-22T10:36:17.476Z,60.47
2022-11-22T10:39:14.104Z,71.75
2022-11-22T10:42:06.179Z,63.70
2022-11-22T10:45:03.553Z,81.50
2022-11-22T10:47:55.446Z,80.57
2022-11-22T10:51:00.848Z,77.97
2022-11-22T10:53:49.971Z,80.45
2022-11-22T10:57:07.011Z,73.45
2022-11-22T11:00:14.053Z,67.07
2022-11-22T11:03:13.474Z,63.22
2022-11-22T11:06:33.325Z,62.85
2022-11-22T11:12:57.341Z,64.72
2022-11-22T11:15:52.736Z,58.97
2022-11-22T11:18:49.848Z,65.35
2022-11-22T11:21:36.015Z,61.65
2022-11-22T11:24:22.000Z,53.83
2022-11-22T11:27:10.634Z,56.95
2022-11-22T11:30:04.275Z,49.33
2022-11-22T11:32:56.860Z,51.10
2022-11-22T11:35:45.044Z,47.63
2022-11-22T11:38:43.081Z,57.42
2022-11-22T11:41:29.185Z,44.63
2022-11-22T11:44:32.479Z,39.10
2022-11-22T11:47:21.089Z,36.25
2022-11-22T11:50:24.012Z,43.58
2022-11-22T11:53:16.758Z,38.25
2022-11-22T11:56:20.975Z,37.88
2022-11-22T11:59:19.741Z,39.47
2022-11-22T12:02:39.964Z,37.35
2022-11-22T12:05:31.331Z,38.72
2022-11-22T12:08:32.811Z,42.15
2022-11-22T12:11:43.230Z,40.75
2022-11-22T12:14:48.721Z,29.88
2022-11-22T12:17:38.657Z,27.67
2022-11-22T12:20:42.712Z,31.67
2022-11-22T12:23:36.300Z,32.97
2022-11-22T12:26:22.411Z,35.97
2022-11-22T12:29:12.941Z,37.97
2022-11-22T12:32:03.434Z,28.30
2022-11-22T12:34:59.164Z,33.38
2022-11-22T12:37:55.526Z,35.72
2022-11-22T12:40:48.265Z,31.55
2022-11-22T12:43:39.983Z,25.85
2022-11-22T12:46:30.730Z,20.83
2022-11-22T12:49:22.700Z,25.35
2022-11-22T12:52:22.789Z,14.32
2022-11-22T12:55:21.719Z,11.07
2022-11-22T12:58:17.069Z,11.55
2022-11-22T13:01:09.344Z,13.85
2022-11-22T13:04:10.733Z,11.38
2022-11-22T13:07:15.679Z,14.75
2022-11-22T13:10:17.239Z,15.20
2022-11-22T13:13:04.689Z,7.55
2022-11-22T13:15:52.706Z,11.02
2022-11-22T13:18:44.074Z,7.45
2022-11-22T13:21:49.133Z,9.73
2022-11-22T13:24:47.011Z,10.75
2022-11-22T13:27:44.700Z,11.00
2022-11-22T13:30:39.535Z,10.57
2022-11-22T13:33:26.243Z,7.60
2022-11-22T13:36:25.348Z,8.65
2022-11-22T13:39:19.461Z,10.27
2022-11-22T13:42:06.666Z,13.93
2022-11-22T13:45:08.312Z,12.35
2022-11-22T13:47:54.518Z,11.05
2022-11-22T13:50:40.392Z,12.27
2022-11-22T13:53:29.073Z,15.35
2022-11-22T13:56:15.174Z,14.98
2022-11-22T13:59:18.848Z,12.50
2022-11-22T14:02:21.756Z,14.82
2022-11-22T14:05:23.210Z,15.10
2022-11-22T14:08:27.463Z,16.90
2022-11-22T14:11:18.092Z,15.98
2022-11-22T14:14:12.379Z,15.30
2022-11-22T14:17:41.494Z,20.17
2022-11-22T14:20:37.302Z,25.63
2022-11-22T14:23:50.612Z,20.17
2022-11-22T14:26:54.668Z,17.48
2022-11-22T14:29:54.024Z,19.00
2022-11-22T14:32:41.863Z,17.80
2022-11-22T14:35:32.214Z,20.90
2022-11-22T14:38:28.454Z,21.17
2022-11-22T14:41:38.155Z,25.23
2022-11-22T14:44:32.428Z,25.77
2022-11-22T14:47:18.364Z,18.15
2022-11-22T14:50:09.014Z,18.98
2022-11-22T14:52:58.010Z,17.95
2022-11-22T14:55:44.684Z,20.35
2022-11-22T14:58:30.959Z,20.30
2022-11-22T15:01:56.452Z,27.30
2022-11-22T15:09:20.506Z,18.42
2022-11-22T15:11:58.721Z,16.73
2022-11-22T15:14:51.216Z,15.68
2022-11-22T15:59:35.816Z,11.82
2022-11-22T16:02:25.272Z,16.30
2022-11-22T16:06:04.716Z,13.43
2022-11-22T16:08:17.777Z,13.75
2022-11-22T16:11:04.418Z,18.85
2022-11-22T16:13:50.520Z,13.05
2022-11-22T16:16:36.396Z,10.95
2022-11-22T16:19:24.233Z,12.80
2022-11-22T16:22:28.423Z,11.05
2022-11-22T16:25:31.523Z,12.02
2022-11-22T16:28:26.894Z,15.75
2022-11-22T16:31:18.257Z,9.70
2022-11-22T16:34:12.849Z,12.93
2022-11-22T16:36:59.123Z,14.32
2022-11-22T16:39:45.279Z,12.88
2022-11-22T16:42:38.071Z,13.27
2022-11-22T16:45:24.153Z,18.27
2022-11-22T16:48:33.041Z,16.23
2022-11-22T16:51:24.049Z,21.65
2022-11-22T16:54:14.409Z,22.33
2022-11-22T16:57:00.269Z,22.75
2022-11-22T16:59:46.135Z,26.17
2022-11-22T17:02:32.188Z,30.80
2022-11-22T17:05:18.290Z,19.05
2022-11-22T17:08:10.746Z,18.55
2022-11-22T17:10:56.912Z,15.57
2022-11-22T17:13:42.908Z,14.60
2022-11-22T17:16:29.058Z,16.88
2022-11-22T17:19:52.675Z,17.20
2022-11-22T17:22:22.912Z,14.38
2022-11-22T17:25:12.312Z,12.25
2022-11-22T17:27:58.096Z,13.35
2022-11-22T17:30:44.146Z,14.48
2022-11-22T17:33:30.002Z,17.92
2022-11-22T17:36:22.706Z,24.90
2022-11-22T17:39:12.510Z,26.98
2022-11-22T17:41:58.431Z,20.95
2022-11-22T17:44:44.433Z,27.48
2022-11-22T17:47:31.018Z,25.88
2022-11-22T17:50:17.351Z,23.92
2022-11-22T17:53:03.258Z,20.85
2022-11-22T17:56:09.345Z,24.08
2022-11-22T17:58:55.243Z,14.40
2022-11-22T18:01:41.178Z,16.88
2022-11-22T18:04:27.076Z,19.95
2022-11-22T18:07:13.194Z,17.85
2022-11-22T18:09:59.189Z,18.67
2022-11-22T18:12:58.636Z,22.38
2022-11-22T18:16:02.961Z,22.02
2022-11-22T18:18:56.802Z,28.27
2022-11-22T18:21:43.863Z,29.92
2022-11-22T18:24:29.919Z,30.42
2022-11-22T18:27:16.075Z,28.33
2022-11-22T18:30:02.270Z,29.23
2022-11-22T18:32:48.416Z,33.63
2022-11-22T18:35:34.434Z,27.98
2022-11-22T18:38:20.239Z,31.65
2022-11-22T18:41:06.315Z,30.23
2022-11-22T18:43:54.341Z,27.98
2022-11-22T18:46:40.488Z,26.73
2022-11-22T18:49:26.637Z,26.73
2022-11-22T18:52:15.000Z,30.95
2022-11-22T18:55:05.374Z,32.13
2022-11-22T18:57:51.442Z,27.15
2022-11-22T19:00:37.425Z,26.13
2022-11-22T19:03:23.468Z,21.33
2022-11-22T19:06:12.945Z,20.55
2022-11-22T19:08:59.021Z,18.90
2022-11-22T19:11:45.357Z,16.30
2022-11-22T19:14:31.656Z,12.70
2022-11-22T19:17:21.862Z,14.25
2022-11-22T19:20:16.718Z,11.77
2022-11-22T19:23:14.983Z,14.32
2022-11-22T19:26:06.151Z,12.70
2022-11-22T19:28:56.524Z,11.70
2022-11-22T19:31:42.432Z,12.50
2022-11-22T19:34:29.113Z,14.38
2022-11-22T19:37:15.259Z,13.10
2022-11-22T19:40:01.281Z,9.90
2022-11-22T19:42:47.369Z,12.10
2022-11-22T19:45:33.707Z,12.15
2022-11-22T19:48:19.714Z,13.23
2022-11-22T19:51:14.202Z,11.07
2022-11-22T19:54:04.896Z,11.55
2022-11-22T19:56:51.043Z,9.50
2022-11-22T19:59:37.266Z,10.65
2022-11-22T20:02:23.443Z,11.13
2022-11-22T20:05:09.479Z,17.33
2022-11-22T20:07:55.459Z,15.55
2022-11-22T20:10:41.315Z,14.70
2022-11-22T20:13:27.500Z,18.63
2022-11-22T20:16:23.383Z,15.13
2022-11-22T20:19:11.418Z,17.42
2022-11-22T20:21:57.355Z,14.30
2022-11-22T20:24:43.324Z,12.95
2022-11-22T20:27:29.465Z,11.13
2022-11-22T20:30:16.027Z,9.57
2022-11-22T20:33:02.600Z,7.70
2022-11-22T20:35:48.912Z,11.60
2022-11-22T20:38:36.156Z,9.90
2022-11-22T20:41:24.841Z,10.25
2022-11-22T20:44:14.375Z,6.57
2022-11-22T20:47:01.320Z,6.30
2022-11-22T20:49:47.516Z,6.75
2022-11-22T20:52:33.495Z,8.18
2022-11-22T20:55:20.390Z,5.63
2022-11-22T20:58:06.323Z,6.47
2022-11-22T21:00:56.358Z,4.70
2022-11-22T21:03:42.395Z,4.40
2022-11-22T21:06:28.947Z,5.40
2022-11-22T21:09:16.229Z,4.60
2022-11-22T21:12:02.383Z,5.22
2022-11-22T21:14:52.510Z,4.80
2022-11-22T21:17:55.767Z,5.88
2022-11-22T21:20:45.684Z,6.65
2022-11-22T21:23:31.920Z,16.38
2022-11-22T21:26:17.829Z,6.85
2022-11-22T21:29:04.954Z,9.27
2022-11-22T21:31:51.053Z,13.35
2022-11-22T21:34:37.140Z,6.38
2022-11-22T21:37:24.156Z,7.80
2022-11-22T21:40:10.803Z,10.05
2022-11-22T21:42:56.905Z,10.48
2022-11-22T21:45:42.753Z,7.30
2022-11-22T21:48:29.818Z,8.20
2022-11-22T21:51:15.779Z,7.75
2022-11-22T21:54:02.045Z,4.30
2022-11-22T21:56:48.098Z,5.80
2022-11-22T21:59:34.476Z,4.72
2022-11-22T22:02:20.564Z,5.50
2022-11-22T22:05:06.875Z,4.32
2022-11-22T22:07:53.412Z,5.07
2022-11-22T22:10:39.724Z,6.68
2022-11-22T22:13:26.103Z,4.63
2022-11-22T22:16:23.755Z,3.65
2022-11-22T22:19:10.243Z,5.63
2022-11-22T22:21:56.567Z,4.88
2022-11-22T22:24:42.696Z,5.22
2022-11-22T22:27:31.439Z,5.82
2022-11-22T22:30:17.725Z,8.15
2022-11-22T22:33:03.999Z,7.47
2022-11-22T22:35:49.847Z,5.25
2022-11-22T22:38:35.821Z,6.35
2022-11-22T22:41:22.335Z,4.88
2022-11-22T22:44:08.412Z,4.50
2022-11-22T22:46:54.178Z,3.95
2022-11-22T22:49:40.150Z,3.30
2022-11-22T22:52:25.987Z,2.70
2022-11-22T22:55:12.047Z,2.40
2022-11-22T22:58:00.495Z,2.78
2022-11-22T23:00:46.383Z,3.25
2022-11-22T23:03:32.357Z,2.88
2022-11-22T23:06:18.430Z,3.17
2022-11-22T23:09:06.775Z,5.15
2022-11-22T23:12:10.703Z,3.55
2022-11-22T23:14:56.959Z,4.50
2022-11-22T23:17:42.999Z,3.22
2022-11-22T23:20:28.938Z,3.67
2022-11-22T23:23:14.819Z,5.07
2022-11-22T23:26:05.822Z,3.88
2022-11-22T23:28:53.308Z,4.65
2022-11-22T23:31:39.759Z,3.38
2022-11-22T23:34:25.803Z,4.53
2022-11-22T23:37:11.732Z,3.63
2022-11-22T23:39:57.684Z,3.47
2022-11-22T23:42:43.556Z,4.22
2022-11-22T23:45:29.396Z,6.97
2022-11-22T23:48:16.245Z,4.82
2022-11-22T23:51:03.973Z,5.45
2022-11-22T23:53:54.278Z,5.90
2022-11-22T23:56:40.472Z,4.28
2022-11-22T23:59:26.400Z,4.90
